Time,TemperatureF,DewpointF,PressureIn,WindDirection,WindDirectionDegrees,WindSpeedMPH,WindSpeedGustMPH,Humidity,HourlyPrecipIn,Conditions,Clouds,dailyrainin,SoftwareType,DateUTC
2013-01-07 00:01:00,15.1,13.2,30.33,SW,225,2.0,-999.0,92,0.00,,,0.00,Wunderground v.1.15,2013-01-07 06:01:00,
2013-01-07 00:06:00,15.1,13.2,30.33,SW,225,2.0,-999.0,92,0.00,,,0.00,Wunderground v.1.15,2013-01-07 06:06:00,
2013-01-07 00:11:00,14.9,13.0,30.33,SW,225,2.0,-999.0,92,0.00,,,0.00,Wunderground v.1.15,2013-01-07 06:11:00,
2013-01-07 00:16:00,15.2,13.3,30.33,SW,225,1.0,-999.0,92,0.00,,,0.00,Wunderground v.1.15,2013-01-07 06:16:00,
2013-01-07 00:21:00,15.2,13.3,30.33,SW,225,2.0,-999.0,92,0.00,,,0.00,Wunderground v.1.15,2013-01-07 06:21:00,
2013-01-07 00:26:00,14.9,13.0,30.33,SW,225,2.0,-999.0,92,0.00,,,0.00,Wunderground v.1.15,2013-01-07 06:26:00,
2013-01-07 00:31:00,14.6,12.5,30.33,SW,225,1.0,-999.0,91,0.00,,,0.00,Wunderground v.1.15,2013-01-07 06:31:00,
2013-01-07 00:36:00,14.3,12.2,30.33,SW,225,0.0,-999.0,91,0.00,,,0.00,Wunderground v.1.15,2013-01-07 06:36:00,
2013-01-07 00:41:00,14.1,12.0,30.32,SW,225,0.0,-999.0,91,0.00,,,0.00,Wunderground v.1.15,2013-01-07 06:41:00,
2013-01-07 00:46:00,14.0,11.9,30.32,SW,225,1.0,-999.0,91,0.00,,,0.00,Wunderground v.1.15,2013-01-07 06:46:00,
2013-01-07 00:51:00,13.8,11.7,30.33,SW,225,1.0,-999.0,91,0.00,,,0.00,Wunderground v.1.15,2013-01-07 06:51:00,
2013-01-07 00:56:00,14.4,12.5,30.33,N/A,-737280,0.0,-999.0,92,0.00,,,0.00,Wunderground v.1.15,2013-01-07 06:56:00,
2013-01-07 01:01:00,14.3,12.4,30.32,N/A,-737280,0.0,-999.0,92,0.00,,,0.00,Wunderground v.1.15,2013-01-07 07:01:00,
2013-01-07 01:06:00,14.3,12.4,30.33,N/A,-737280,0.0,-999.0,92,0.00,,,0.00,Wunderground v.1.15,2013-01-07 07:06:00,
2013-01-07 01:11:00,14.3,12.4,30.33,N/A,-737280,0.0,-999.0,92,0.00,,,0.00,Wunderground v.1.15,2013-01-07 07:11:00,
2013-01-07 01:16:00,14.4,12.5,30.33,N/A,-737280,0.0,-999.0,92,0.00,,,0.00,Wunderground v.1.15,2013-01-07 07:16:00,
2013-01-07 01:21:00,14.3,12.4,30.33,N/A,-737280,0.0,-999.0,92,0.00,,,0.00,Wunderground v.1.15,2013-01-07 07:21:00,
2013-01-07 01:26:00,14.3,12.4,30.33,N/A,-737280,0.0,-999.0,92,0.00,,,0.00,Wunderground v.1.15,2013-01-07 07:26:00,
2013-01-07 01:31:00,14.1,12.2,30.33,N/A,-737280,0.0,-999.0,92,0.00,,,0.00,Wunderground v.1.15,2013-01-07 07:31:00,
2013-01-07 01:36:00,14.0,12.1,30.33,SW,225,0.0,-999.0,92,0.00,,,0.00,Wunderground v.1.15,2013-01-07 07:36:00,
2013-01-07 01:41:00,-999.9,-99.9,30.33,N/A,-737280,0.0,-999.0,92,0.00,,,0.00,Wunderground v.1.15,2013-01-07 07:41:00,
2013-01-07 01:46:00,11.2,9.1,30.33,SW,225,1.0,-999.0,91,0.00,,,0.00,Wunderground v.1.15,2013-01-07 07:46:00,
2013-01-07 01:51:00,10.9,8.5,30.33,SW,225,1.0,-999.0,90,0.00,,,0.00,Wunderground v.1.15,2013-01-07 07:51:00,
2013-01-07 01:56:00,10.5,8.1,30.33,SW,225,1.0,-999.0,90,0.00,,,0.00,Wunderground v.1.15,2013-01-07 07:56:00,
2013-01-07 02:01:00,10.7,8.3,30.33,SW,225,2.0,-999.0,90,0.00,,,0.00,Wunderground v.1.15,2013-01-07 08:01:00,
2013-01-07 02:06:00,11.7,9.8,30.33,SW,225,2.0,-999.0,92,0.00,,,0.00,Wunderground v.1.15,2013-01-07 08:06:00,
2013-01-07 02:11:00,12.3,10.4,30.33,SSW,203,3.0,-999.0,92,0.00,,,0.00,Wunderground v.1.15,2013-01-07 08:11:00,
2013-01-07 02:16:00,12.7,10.8,30.33,SSW,203,3.0,-999.0,92,0.00,,,0.00,Wunderground v.1.15,2013-01-07 08:16:00,
2013-01-07 02:21:00,13.3,11.4,30.33,SSW,203,2.0,-999.0,92,0.00,,,0.00,Wunderground v.1.15,2013-01-07 08:21:00,
2013-01-07 02:26:00,13.5,11.6,30.33,SW,225,2.0,-999.0,92,0.00,,,0.00,Wunderground v.1.15,2013-01-07 08:26:00,
2013-01-07 02:31:00,13.9,12.0,30.33,SW,225,2.0,-999.0,92,0.00,,,0.00,Wunderground v.1.15,2013-01-07 08:31:00,
2013-01-07 02:36:00,13.9,12.0,30.32,SW,225,1.0,-999.0,92,0.00,,,0.00,Wunderground v.1.15,2013-01-07 08:36:00,
2013-01-07 02:41:00,14.1,12.2,30.33,SW,225,2.0,-999.0,92,0.00,,,0.00,Wunderground v.1.15,2013-01-07 08:41:00,
2013-01-07 02:46:00,14.2,12.3,30.33,SW,225,1.0,-999.0,92,0.00,,,0.00,Wunderground v.1.15,2013-01-07 08:46:00,
2013-01-07 02:51:00,13.8,11.7,30.33,SSW,203,1.0,-999.0,91,0.00,,,0.00,Wunderground v.1.15,2013-01-07 08:51:00,
2013-01-07 02:56:00,13.7,11.6,30.33,SW,225,2.0,-999.0,91,0.00,,,0.00,Wunderground v.1.15,2013-01-07 08:56:00,
2013-01-07 03:01:00,14.0,12.1,30.33,SW,225,2.0,-999.0,92,0.00,,,0.00,Wunderground v.1.15,2013-01-07 09:01:00,
2013-01-07 03:06:00,14.1,12.2,30.33,SW,225,2.0,-999.0,92,0.00,,,0.00,Wunderground v.1.15,2013-01-07 09:06:00,
2013-01-07 03:11:00,14.0,11.9,30.32,SSW,203,2.0,-999.0,91,0.00,,,0.00,Wunderground v.1.15,2013-01-07 09:11:00,
2013-01-07 03:16:00,13.8,11.7,30.32,SSW,203,2.0,-999.0,91,0.00,,,0.00,Wunderground v.1.15,2013-01-07 09:16:00,
2013-01-07 03:21:00,13.8,11.7,30.32,SSW,203,2.0,-999.0,91,0.00,,,0.00,Wunderground v.1.15,2013-01-07 09:21:00,
2013-01-07 03:26:00,13.7,11.6,30.32,SSW,203,2.0,-999.0,91,0.00,,,0.00,Wunderground v.1.15,2013-01-07 09:26:00,
2013-01-07 03:31:00,13.6,11.5,30.32,SSW,203,2.0,-999.0,91,0.00,,,0.00,Wunderground v.1.15,2013-01-07 09:31:00,
2013-01-07 03:36:00,13.6,11.5,30.31,SSW,203,2.0,-999.0,91,0.00,,,0.00,Wunderground v.1.15,2013-01-07 09:36:00,
2013-01-07 03:41:00,13.6,11.5,30.31,SSW,203,2.0,-999.0,91,0.00,,,0.00,Wunderground v.1.15,2013-01-07 09:41:00,
2013-01-07 03:46:00,13.6,11.5,30.31,SW,225,2.0,-999.0,91,0.00,,,0.00,Wunderground v.1.15,2013-01-07 09:46:00,
2013-01-07 03:51:00,13.7,11.6,30.31,SW,225,2.0,-999.0,91,0.00,,,0.00,Wunderground v.1.15,2013-01-07 09:51:00,
2013-01-07 03:56:00,13.7,11.6,30.31,SW,225,3.0,-999.0,91,0.00,,,0.00,Wunderground v.1.15,2013-01-07 09:56:00,
2013-01-07 04:01:00,14.0,11.9,30.31,SW,225,3.0,-999.0,91,0.00,,,0.00,Wunderground v.1.15,2013-01-07 10:01:00,
2013-01-07 04:06:00,14.2,12.1,30.31,SW,225,3.0,-999.0,91,0.00,,,0.00,Wunderground v.1.15,2013-01-07 10:06:00,
2013-01-07 04:11:00,14.5,12.4,30.31,SW,225,3.0,-999.0,91,0.00,,,0.00,Wunderground v.1.15,2013-01-07 10:11:00,
2013-01-07 04:16:00,14.7,12.6,30.31,SW,225,4.0,-999.0,91,0.00,,,0.00,Wunderground v.1.15,2013-01-07 10:16:00,
2013-01-07 04:21:00,14.6,12.2,30.31,SW,225,3.0,-999.0,90,0.00,,,0.00,Wunderground v.1.15,2013-01-07 10:21:00,
2013-01-07 04:26:00,14.8,12.4,30.31,SW,225,4.0,-999.0,90,0.00,,,0.00,Wunderground v.1.15,2013-01-07 10:26:00,
2013-01-07 04:31:00,15.0,12.6,30.31,SW,225,3.0,-999.0,90,0.00,,,0.00,Wunderground v.1.15,2013-01-07 10:31:00,
2013-01-07 04:36:00,15.1,12.7,30.31,SW,225,4.0,-999.0,90,0.00,,,0.00,Wunderground v.1.15,2013-01-07 10:36:00,
2013-01-07 04:41:00,15.2,12.8,30.31,SW,225,3.0,-999.0,90,0.00,,,0.00,Wunderground v.1.15,2013-01-07 10:41:00,
2013-01-07 04:46:00,15.3,12.9,30.31,SW,225,4.0,-999.0,90,0.00,,,0.00,Wunderground v.1.15,2013-01-07 10:46:00,
2013-01-07 04:51:00,15.3,12.6,30.30,SW,225,3.0,-999.0,89,0.00,,,0.00,Wunderground v.1.15,2013-01-07 10:51:00,
2013-01-07 04:56:00,15.2,12.5,30.30,SSW,203,3.0,-999.0,89,0.00,,,0.00,Wunderground v.1.15,2013-01-07 10:56:00,
2013-01-07 05:01:00,15.2,12.5,30.30,SSW,203,3.0,-999.0,89,0.00,,,0.00,Wunderground v.1.15,2013-01-07 11:01:00,
2013-01-07 05:06:00,15.2,12.5,30.30,South,180,4.0,-999.0,89,0.00,,,0.00,Wunderground v.1.15,2013-01-07 11:06:00,
2013-01-07 05:11:00,15.0,12.3,30.30,SSW,203,3.0,-999.0,89,0.00,,,0.00,Wunderground v.1.15,2013-01-07 11:11:00,
2013-01-07 05:16:00,14.9,12.2,30.30,SSW,203,2.0,-999.0,89,0.00,,,0.00,Wunderground v.1.15,2013-01-07 11:16:00,
2013-01-07 05:21:00,14.8,12.1,30.30,SSW,203,2.0,-999.0,89,0.00,,,0.00,Wunderground v.1.15,2013-01-07 11:21:00,
2013-01-07 05:26:00,14.5,11.9,30.30,SSW,203,3.0,-999.0,89,0.00,,,0.00,Wunderground v.1.15,2013-01-07 11:26:00,
2013-01-07 05:31:00,14.5,11.9,30.30,SSW,203,3.0,-999.0,89,0.00,,,0.00,Wunderground v.1.15,2013-01-07 11:31:00,
2013-01-07 05:36:00,14.8,12.4,30.30,SW,225,3.0,-999.0,90,0.00,,,0.00,Wunderground v.1.15,2013-01-07 11:36:00,
2013-01-07 05:41:00,15.0,12.6,30.30,SSW,203,3.0,-999.0,90,0.00,,,0.00,Wunderground v.1.15,2013-01-07 11:41:00,
2013-01-07 05:46:00,15.3,12.9,30.29,SSW,203,3.0,-999.0,90,0.00,,,0.00,Wunderground v.1.15,2013-01-07 11:46:00,
2013-01-07 05:51:00,15.4,13.0,30.29,SSW,203,3.0,-999.0,90,0.00,,,0.00,Wunderground v.1.15,2013-01-07 11:51:00,
2013-01-07 05:56:00,15.7,13.3,30.29,SSW,203,3.0,-999.0,90,0.00,,,0.00,Wunderground v.1.15,2013-01-07 11:56:00,
2013-01-07 06:01:00,15.8,13.1,30.29,SSW,203,3.0,-999.0,89,0.00,,,0.00,Wunderground v.1.15,2013-01-07 12:01:00,
2013-01-07 06:06:00,15.5,12.8,30.28,SSW,203,5.0,-999.0,89,0.00,,,0.00,Wunderground v.1.15,2013-01-07 12:06:00,
2013-01-07 06:11:00,16.0,13.1,30.29,SSW,203,7.0,-999.0,88,0.00,,,0.00,Wunderground v.1.15,2013-01-07 12:11:00,
2013-01-07 06:16:00,16.5,13.6,30.28,SSW,203,7.0,-999.0,88,0.00,,,0.00,Wunderground v.1.15,2013-01-07 12:16:00,
2013-01-07 06:21:00,17.2,14.0,30.28,South,180,7.0,-999.0,87,0.00,,,0.00,Wunderground v.1.15,2013-01-07 12:21:00,
2013-01-07 06:26:00,17.7,14.2,30.28,SSW,203,7.0,-999.0,86,0.00,,,0.00,Wunderground v.1.15,2013-01-07 12:26:00,
2013-01-07 06:31:00,18.2,14.7,30.28,SSW,203,6.0,-999.0,86,0.00,,,0.00,Wunderground v.1.15,2013-01-07 12:31:00,
2013-01-07 06:36:00,18.8,15.0,30.28,SSW,203,7.0,-999.0,85,0.00,,,0.00,Wunderground v.1.15,2013-01-07 12:36:00,
2013-01-07 06:41:00,19.1,15.3,30.28,SSW,203,10.0,-999.0,85,0.00,,,0.00,Wunderground v.1.15,2013-01-07 12:41:00,
2013-01-07 06:46:00,19.7,15.6,30.27,SSW,203,9.0,-999.0,84,0.00,,,0.00,Wunderground v.1.15,2013-01-07 12:46:00,
2013-01-07 06:51:00,20.0,15.7,30.27,SSW,203,11.0,-999.0,83,0.00,,,0.00,Wunderground v.1.15,2013-01-07 12:51:00,
2013-01-07 06:56:00,20.2,15.9,30.27,SSW,203,10.0,-999.0,83,0.00,,,0.00,Wunderground v.1.15,2013-01-07 12:56:00,
2013-01-07 07:01:00,20.4,15.8,30.27,South,180,9.0,-999.0,82,0.00,,,0.00,Wunderground v.1.15,2013-01-07 13:01:00,
2013-01-07 07:06:00,20.5,15.9,30.26,SSW,203,9.0,-999.0,82,0.00,,,0.00,Wunderground v.1.15,2013-01-07 13:06:00,
2013-01-07 07:11:00,20.6,16.0,30.26,SSW,203,10.0,-999.0,82,0.00,,,0.00,Wunderground v.1.15,2013-01-07 13:11:00,
2013-01-07 07:16:00,20.8,16.2,30.26,SSW,203,11.0,-999.0,82,0.00,,,0.00,Wunderground v.1.15,2013-01-07 13:16:00,
2013-01-07 07:21:00,20.8,16.2,30.26,SSW,203,8.0,-999.0,82,0.00,,,0.00,Wunderground v.1.15,2013-01-07 13:21:00,
2013-01-07 07:26:00,20.9,16.3,30.26,SSW,203,10.0,-999.0,82,0.00,,,0.00,Wunderground v.1.15,2013-01-07 13:26:00,
2013-01-07 07:31:00,20.9,16.3,30.26,SSW,203,12.0,-999.0,82,0.00,,,0.00,Wunderground v.1.15,2013-01-07 13:31:00,
2013-01-07 07:36:00,21.2,16.6,30.26,SSW,203,9.0,-999.0,82,0.00,,,0.00,Wunderground v.1.15,2013-01-07 13:36:00,
2013-01-07 07:41:00,21.7,16.8,30.26,SSW,203,10.0,-999.0,81,0.00,,,0.00,Wunderground v.1.15,2013-01-07 13:41:00,
2013-01-07 07:46:00,21.9,17.0,30.26,SSW,203,10.0,-999.0,81,0.00,,,0.00,Wunderground v.1.15,2013-01-07 13:46:00,
2013-01-07 07:51:00,22.2,17.3,30.25,SSW,203,12.0,-999.0,81,0.00,,,0.00,Wunderground v.1.15,2013-01-07 13:51:00,
2013-01-07 07:56:00,22.7,17.5,30.25,SSW,203,14.0,-999.0,80,0.00,,,0.00,Wunderground v.1.15,2013-01-07 13:56:00,
2013-01-07 08:01:00,23.1,19.5,30.25,SSW,203,12.0,-999.0,86,0.00,,,0.00,Wunderground v.1.15,2013-01-07 14:01:00,
2013-01-07 08:06:00,23.4,17.8,30.25,SSW,203,12.0,-999.0,79,0.00,,,0.00,Wunderground v.1.15,2013-01-07 14:06:00,
2013-01-07 08:11:00,23.6,17.7,30.25,SSW,203,10.0,-999.0,78,0.00,,,0.00,Wunderground v.1.15,2013-01-07 14:11:00,
2013-01-07 08:16:00,23.9,17.7,30.25,SSW,203,11.0,-999.0,77,0.00,,,0.00,Wunderground v.1.15,2013-01-07 14:16:00,
2013-01-07 08:21:00,24.0,17.8,30.24,South,180,11.0,-999.0,77,0.00,,,0.00,Wunderground v.1.15,2013-01-07 14:21:00,
2013-01-07 08:26:00,24.2,18.0,30.24,SSW,203,14.0,-999.0,77,0.00,,,0.00,Wunderground v.1.15,2013-01-07 14:26:00,
2013-01-07 08:31:00,24.3,17.8,30.24,SSW,203,10.0,-999.0,76,0.00,,,0.00,Wunderground v.1.15,2013-01-07 14:31:00,
2013-01-07 08:36:00,24.5,18.0,30.24,SSW,203,12.0,-999.0,76,0.00,,,0.00,Wunderground v.1.15,2013-01-07 14:36:00,
2013-01-07 08:41:00,24.5,18.0,30.24,SSW,203,10.0,-999.0,76,0.00,,,0.00,Wunderground v.1.15,2013-01-07 14:41:00,
2013-01-07 08:46:00,24.6,18.1,30.24,SSW,203,11.0,-999.0,76,0.00,,,0.00,Wunderground v.1.15,2013-01-07 14:46:00,
2013-01-07 08:51:00,24.8,18.0,30.25,SSW,203,10.0,-999.0,75,0.00,,,0.00,Wunderground v.1.15,2013-01-07 14:51:00,
2013-01-07 08:56:00,24.9,18.1,30.25,SSW,203,10.0,-999.0,75,0.00,,,0.00,Wunderground v.1.15,2013-01-07 14:56:00,
2013-01-07 09:01:00,25.1,18.0,30.25,SSW,203,10.0,-999.0,74,0.00,,,0.00,Wunderground v.1.15,2013-01-07 15:01:00,
2013-01-07 09:06:00,25.3,18.2,30.25,SW,225,12.0,-999.0,74,0.00,,,0.00,Wunderground v.1.15,2013-01-07 15:06:00,
2013-01-07 09:11:00,25.3,18.2,30.25,SSW,203,11.0,-999.0,74,0.00,,,0.00,Wunderground v.1.15,2013-01-07 15:11:00,
2013-01-07 09:16:00,25.5,18.4,30.25,SSW,203,11.0,-999.0,74,0.00,,,0.00,Wunderground v.1.15,2013-01-07 15:16:00,
2013-01-07 09:21:00,25.6,18.5,30.25,SW,225,10.0,-999.0,74,0.00,,,0.00,Wunderground v.1.15,2013-01-07 15:21:00,
2013-01-07 09:26:00,25.7,18.6,30.25,SSW,203,8.0,-999.0,74,0.00,,,0.00,Wunderground v.1.15,2013-01-07 15:26:00,
2013-01-07 09:31:00,25.8,18.3,30.25,SSW,203,9.0,-999.0,73,0.00,,,0.00,Wunderground v.1.15,2013-01-07 15:31:00,
2013-01-07 09:36:00,25.8,18.3,30.25,SSW,203,13.0,-999.0,73,0.00,,,0.00,Wunderground v.1.15,2013-01-07 15:36:00,
2013-01-07 09:41:00,26.1,18.6,30.25,SSW,203,10.0,-999.0,73,0.00,,,0.00,Wunderground v.1.15,2013-01-07 15:41:00,
2013-01-07 09:46:00,26.3,18.8,30.25,SSW,203,10.0,-999.0,73,0.00,,,0.00,Wunderground v.1.15,2013-01-07 15:46:00,
2013-01-07 09:51:00,26.7,18.9,30.24,SW,225,13.0,-999.0,72,0.00,,,0.00,Wunderground v.1.15,2013-01-07 15:51:00,
2013-01-07 09:56:00,27.0,19.2,30.25,SW,225,12.0,-999.0,72,0.00,,,0.00,Wunderground v.1.15,2013-01-07 15:56:00,
2013-01-07 10:01:00,27.4,19.2,30.24,SSW,203,12.0,-999.0,71,0.00,,,0.00,Wunderground v.1.15,2013-01-07 16:01:00,
2013-01-07 10:06:00,27.6,19.4,30.24,SSW,203,13.0,-999.0,71,0.00,,,0.00,Wunderground v.1.15,2013-01-07 16:06:00,
2013-01-07 10:11:00,27.9,19.7,30.24,SSW,203,15.0,-999.0,71,0.00,,,0.00,Wunderground v.1.15,2013-01-07 16:11:00,
2013-01-07 10:16:00,28.1,19.9,30.24,SSW,203,13.0,-999.0,71,0.00,,,0.00,Wunderground v.1.15,2013-01-07 16:16:00,
2013-01-07 10:21:00,28.4,20.2,30.24,SW,225,12.0,-999.0,71,0.00,,,0.00,Wunderground v.1.15,2013-01-07 16:21:00,
2013-01-07 10:26:00,28.6,20.1,30.24,SSW,203,15.0,-999.0,70,0.00,,,0.00,Wunderground v.1.15,2013-01-07 16:26:00,
2013-01-07 10:31:00,28.7,20.5,30.23,SSW,203,15.0,-999.0,71,0.00,,,0.00,Wunderground v.1.15,2013-01-07 16:31:00,
2013-01-07 10:36:00,28.7,20.1,30.22,SW,225,15.0,-999.0,70,0.00,,,0.00,Wunderground v.1.15,2013-01-07 16:36:00,
2013-01-07 10:41:00,28.8,20.6,30.22,SSW,203,15.0,-999.0,71,0.00,,,0.00,Wunderground v.1.15,2013-01-07 16:41:00,
2013-01-07 10:46:00,29.1,20.9,30.21,SSW,203,15.0,-999.0,71,0.00,,,0.00,Wunderground v.1.15,2013-01-07 16:46:00,
2013-01-07 10:51:00,29.4,21.2,30.21,SSW,203,15.0,-999.0,71,0.00,,,0.00,Wunderground v.1.15,2013-01-07 16:51:00,
2013-01-07 10:56:00,29.6,21.0,30.20,SSW,203,17.0,-999.0,70,0.00,,,0.00,Wunderground v.1.15,2013-01-07 16:56:00,
2013-01-07 11:01:00,29.9,21.3,30.20,SSW,203,13.0,-999.0,70,0.00,,,0.00,Wunderground v.1.15,2013-01-07 17:01:00,
2013-01-07 11:06:00,30.2,21.2,30.19,SW,225,15.0,-999.0,69,0.00,,,0.00,Wunderground v.1.15,2013-01-07 17:06:00,
2013-01-07 11:11:00,30.5,21.5,30.19,SW,225,15.0,-999.0,69,0.00,,,0.00,Wunderground v.1.15,2013-01-07 17:11:00,
2013-01-07 11:16:00,30.6,21.6,30.19,SW,225,14.0,-999.0,69,0.00,,,0.00,Wunderground v.1.15,2013-01-07 17:16:00,
2013-01-07 11:21:00,30.7,21.7,30.18,SSW,203,13.0,-999.0,69,0.00,,,0.00,Wunderground v.1.15,2013-01-07 17:21:00,
2013-01-07 11:26:00,31.0,21.7,30.18,SW,225,15.0,-999.0,68,0.00,,,0.00,Wunderground v.1.15,2013-01-07 17:26:00,
2013-01-07 11:31:00,31.3,22.0,30.18,SSW,203,15.0,-999.0,68,0.00,,,0.00,Wunderground v.1.15,2013-01-07 17:31:00,
2013-01-07 11:36:00,31.2,21.5,30.17,SW,225,19.0,-999.0,67,0.00,,,0.00,Wunderground v.1.15,2013-01-07 17:36:00,
2013-01-07 11:41:00,31.3,21.6,30.17,SW,225,15.0,-999.0,67,0.00,,,0.00,Wunderground v.1.15,2013-01-07 17:41:00,
2013-01-07 11:46:00,31.5,22.1,30.17,SSW,203,12.0,-999.0,68,0.00,,,0.00,Wunderground v.1.15,2013-01-07 17:46:00,
2013-01-07 11:51:00,31.6,22.2,30.17,SSW,203,14.0,-999.0,68,0.00,,,0.00,Wunderground v.1.15,2013-01-07 17:51:00,
2013-01-07 11:56:00,31.7,22.3,30.17,SSW,203,12.0,-999.0,68,0.00,,,0.00,Wunderground v.1.15,2013-01-07 17:56:00,
2013-01-07 12:01:00,31.9,22.5,30.16,SSW,203,13.0,-999.0,68,0.00,,,0.00,Wunderground v.1.15,2013-01-07 18:01:00,
2013-01-07 12:06:00,32.3,22.9,30.16,SW,225,11.0,-999.0,68,0.00,,,0.00,Wunderground v.1.15,2013-01-07 18:06:00,
2013-01-07 12:11:00,32.5,22.8,30.16,SW,225,12.0,-999.0,67,0.00,,,0.00,Wunderground v.1.15,2013-01-07 18:11:00,
2013-01-07 12:16:00,32.7,22.9,30.16,SSW,203,12.0,-999.0,67,0.00,,,0.00,Wunderground v.1.15,2013-01-07 18:16:00,
2013-01-07 12:21:00,32.6,22.8,30.15,SW,225,15.0,-999.0,67,0.00,,,0.00,Wunderground v.1.15,2013-01-07 18:21:00,
2013-01-07 12:26:00,32.8,23.0,30.15,SW,225,9.0,-999.0,67,0.00,,,0.00,Wunderground v.1.15,2013-01-07 18:26:00,
2013-01-07 12:31:00,33.0,23.2,30.14,SW,225,13.0,-999.0,67,0.00,,,0.00,Wunderground v.1.15,2013-01-07 18:31:00,
2013-01-07 12:36:00,33.0,23.2,30.14,SW,225,12.0,-999.0,67,0.00,,,0.00,Wunderground v.1.15,2013-01-07 18:36:00,
2013-01-07 12:41:00,33.2,23.4,30.14,SSW,203,14.0,-999.0,67,0.00,,,0.00,Wunderground v.1.15,2013-01-07 18:41:00,
2013-01-07 12:46:00,33.4,23.3,30.13,SSW,203,15.0,-999.0,66,0.00,,,0.00,Wunderground v.1.15,2013-01-07 18:46:00,
2013-01-07 12:51:00,33.7,23.5,30.12,SW,225,13.0,-999.0,66,0.00,,,0.00,Wunderground v.1.15,2013-01-07 18:51:00,
2013-01-07 12:56:00,33.9,23.7,30.12,SSW,203,15.0,-999.0,66,0.00,,,0.00,Wunderground v.1.15,2013-01-07 18:56:00,
2013-01-07 13:01:00,34.1,23.6,30.11,SSW,203,17.0,-999.0,65,0.00,,,0.00,Wunderground v.1.15,2013-01-07 19:01:00,
2013-01-07 13:06:00,34.4,24.2,30.11,SSW,203,13.0,-999.0,66,0.00,,,0.00,Wunderground v.1.15,2013-01-07 19:06:00,
2013-01-07 13:11:00,34.5,23.9,30.11,SSW,203,18.0,-999.0,65,0.00,,,0.00,Wunderground v.1.15,2013-01-07 19:11:00,
2013-01-07 13:16:00,34.9,24.3,30.11,SSW,203,12.0,-999.0,65,0.00,,,0.00,Wunderground v.1.15,2013-01-07 19:16:00,
2013-01-07 13:21:00,35.1,24.1,30.10,SW,225,13.0,-999.0,64,0.00,,,0.00,Wunderground v.1.15,2013-01-07 19:21:00,
2013-01-07 13:26:00,35.3,24.7,30.10,SSW,203,11.0,-999.0,65,0.00,,,0.00,Wunderground v.1.15,2013-01-07 19:26:00,
2013-01-07 13:31:00,35.6,24.6,30.10,SSW,203,15.0,-999.0,64,0.00,,,0.00,Wunderground v.1.15,2013-01-07 19:31:00,
2013-01-07 13:36:00,35.9,24.5,30.10,SSW,203,11.0,-999.0,63,0.00,,,0.00,Wunderground v.1.15,2013-01-07 19:36:00,
2013-01-07 13:41:00,36.1,24.7,30.10,SW,225,13.0,-999.0,63,0.00,,,0.00,Wunderground v.1.15,2013-01-07 19:41:00,
2013-01-07 13:46:00,36.2,24.8,30.10,SSW,203,13.0,-999.0,63,0.00,,,0.00,Wunderground v.1.15,2013-01-07 19:46:00,
2013-01-07 13:51:00,36.4,25.0,30.11,SW,225,11.0,-999.0,63,0.00,,,0.00,Wunderground v.1.15,2013-01-07 19:51:00,
2013-01-07 13:56:00,36.5,25.1,30.10,SSW,203,11.0,-999.0,63,0.00,,,0.00,Wunderground v.1.15,2013-01-07 19:56:00,
2013-01-07 14:01:00,36.7,25.3,30.11,SSW,203,8.0,-999.0,63,0.00,,,0.00,Wunderground v.1.15,2013-01-07 20:01:00,
2013-01-07 14:06:00,36.9,25.5,30.11,SW,225,12.0,-999.0,63,0.00,,,0.00,Wunderground v.1.15,2013-01-07 20:06:00,
2013-01-07 14:11:00,37.0,25.2,30.11,SW,225,12.0,-999.0,62,0.00,,,0.00,Wunderground v.1.15,2013-01-07 20:11:00,
2013-01-07 14:16:00,37.0,25.2,30.10,SW,225,12.0,-999.0,62,0.00,,,0.00,Wunderground v.1.15,2013-01-07 20:16:00,
2013-01-07 14:21:00,36.9,25.5,30.11,SW,225,9.0,-999.0,63,0.00,,,0.00,Wunderground v.1.15,2013-01-07 20:21:00,
2013-01-07 14:26:00,36.8,25.0,30.11,SW,225,13.0,-999.0,62,0.00,,,0.00,Wunderground v.1.15,2013-01-07 20:26:00,
2013-01-07 14:31:00,36.9,25.5,30.10,SSW,203,12.0,-999.0,63,0.00,,,0.00,Wunderground v.1.15,2013-01-07 20:31:00,
2013-01-07 14:36:00,36.8,25.4,30.10,SW,225,12.0,-999.0,63,0.00,,,0.00,Wunderground v.1.15,2013-01-07 20:36:00,
2013-01-07 14:41:00,36.7,25.3,30.11,SW,225,11.0,-999.0,63,0.00,,,0.00,Wunderground v.1.15,2013-01-07 20:41:00,
2013-01-07 14:46:00,36.7,25.7,30.10,SSW,203,9.0,-999.0,64,0.00,,,0.00,Wunderground v.1.15,2013-01-07 20:46:00,
2013-01-07 14:51:00,36.8,25.8,30.10,SW,225,11.0,-999.0,64,0.00,,,0.00,Wunderground v.1.15,2013-01-07 20:51:00,
2013-01-07 14:56:00,36.6,25.9,30.11,SW,225,8.0,-999.0,65,0.00,,,0.00,Wunderground v.1.15,2013-01-07 20:56:00,
2013-01-07 15:01:00,36.7,25.7,30.11,SSW,203,10.0,-999.0,64,0.00,,,0.00,Wunderground v.1.15,2013-01-07 21:01:00,
2013-01-07 15:06:00,36.8,25.8,30.11,SSW,203,9.0,-999.0,64,0.00,,,0.00,Wunderground v.1.15,2013-01-07 21:06:00,
2013-01-07 15:11:00,36.7,25.7,30.11,SW,225,11.0,-999.0,64,0.00,,,0.00,Wunderground v.1.15,2013-01-07 21:11:00,
2013-01-07 15:16:00,36.6,25.9,30.10,SW,225,7.0,-999.0,65,0.00,,,0.00,Wunderground v.1.15,2013-01-07 21:16:00,
2013-01-07 15:21:00,36.5,25.5,30.10,SW,225,6.0,-999.0,64,0.00,,,0.00,Wunderground v.1.15,2013-01-07 21:21:00,
2013-01-07 15:26:00,36.2,25.6,30.10,SW,225,5.0,-999.0,65,0.00,,,0.00,Wunderground v.1.15,2013-01-07 21:26:00,
2013-01-07 15:31:00,35.9,25.6,30.10,SSW,203,5.0,-999.0,66,0.00,,,0.00,Wunderground v.1.15,2013-01-07 21:31:00,
2013-01-07 15:36:00,35.7,25.4,30.10,SSW,203,8.0,-999.0,66,0.00,,,0.00,Wunderground v.1.15,2013-01-07 21:36:00,
2013-01-07 15:41:00,35.7,25.4,30.10,SSW,203,6.0,-999.0,66,0.00,,,0.00,Wunderground v.1.15,2013-01-07 21:41:00,
2013-01-07 15:46:00,35.6,25.4,30.10,SW,225,6.0,-999.0,66,0.00,,,0.00,Wunderground v.1.15,2013-01-07 21:46:00,
2013-01-07 15:51:00,35.7,25.4,30.10,SW,225,6.0,-999.0,66,0.00,,,0.00,Wunderground v.1.15,2013-01-07 21:51:00,
2013-01-07 15:55:00,35.7,25.8,30.10,SW,225,6.0,6.0,67,0.00,,,0.00,Wunderground v.1.15,2013-01-07 21:55:00,
2013-01-07 15:56:00,35.6,25.7,30.10,SW,225,4.0,-999.0,67,0.00,,,0.00,Wunderground v.1.15,2013-01-07 21:56:00,
2013-01-07 16:01:00,35.6,25.7,30.10,SW,225,5.0,-999.0,67,0.00,,,0.00,Wunderground v.1.15,2013-01-07 22:01:00,
2013-01-07 16:06:00,35.4,25.5,30.10,SW,225,4.0,-999.0,67,0.00,,,0.00,Wunderground v.1.15,2013-01-07 22:06:00,
2013-01-07 16:10:00,35.2,25.3,30.10,SW,222,4.0,4.0,67,0.00,,,0.00,Wunderground v.1.15,2013-01-07 22:10:00,
2013-01-07 16:11:00,35.2,25.3,30.10,SW,225,3.0,-999.0,67,0.00,,,0.00,Wunderground v.1.15,2013-01-07 22:11:00,
2013-01-07 16:15:00,35.1,25.2,30.11,SW,226,4.0,4.0,67,0.00,,,0.00,Wunderground v.1.15,2013-01-07 22:15:00,
2013-01-07 16:20:00,34.9,25.4,30.11,SW,221,4.0,4.0,68,0.00,,,0.00,Wunderground v.1.15,2013-01-07 22:20:00,
2013-01-07 16:25:00,34.8,25.3,30.11,WSW,248,4.0,7.0,68,0.00,,,0.00,Wunderground v.1.15,2013-01-07 22:25:00,
2013-01-07 16:30:00,34.6,25.1,30.11,SW,234,5.0,5.0,68,0.00,,,0.00,Wunderground v.1.15,2013-01-07 22:30:00,
2013-01-07 16:35:00,34.5,25.4,30.11,SW,230,6.0,6.0,69,0.00,,,0.00,Wunderground v.1.15,2013-01-07 22:35:00,
2013-01-07 16:44:00,34.4,25.3,30.10,SW,214,6.0,6.0,69,0.00,,,0.00,Wunderground v.1.15,2013-01-07 22:44:00,
2013-01-07 16:49:00,34.1,25.0,30.11,SSW,213,5.0,8.0,69,0.00,,,0.00,Wunderground v.1.15,2013-01-07 22:49:00,
2013-01-07 16:55:00,34.0,25.2,30.10,SW,221,6.0,7.0,70,0.00,,,0.00,Wunderground v.1.15,2013-01-07 22:55:00,
2013-01-07 17:00:00,34.0,25.2,30.11,SW,226,7.0,8.0,70,0.00,,,0.00,Wunderground v.1.15,2013-01-07 23:00:00,
2013-01-07 17:05:00,34.0,25.2,30.11,SW,223,8.0,11.0,70,0.00,,,0.00,Wunderground v.1.15,2013-01-07 23:05:00,
2013-01-07 17:11:00,34.2,25.4,30.11,SW,225,7.0,7.0,70,0.00,,,0.00,Wunderground v.1.15,2013-01-07 23:11:00,
2013-01-07 17:16:00,34.3,25.5,30.11,WSW,244,11.0,14.0,70,0.00,,,0.00,Wunderground v.1.15,2013-01-07 23:16:00,
2013-01-07 17:21:00,34.4,25.3,30.11,SW,233,6.0,9.0,69,0.00,,,0.00,Wunderground v.1.15,2013-01-07 23:21:00,
2013-01-07 17:26:00,34.4,25.6,30.12,SW,227,6.0,10.0,70,0.00,,,0.00,Wunderground v.1.15,2013-01-07 23:26:00,
2013-01-07 17:31:00,34.4,25.6,30.11,SW,233,6.0,10.0,70,0.00,,,0.00,Wunderground v.1.15,2013-01-07 23:31:00,
2013-01-07 17:36:00,34.4,25.6,30.11,SW,219,5.0,13.0,70,0.00,,,0.00,Wunderground v.1.15,2013-01-07 23:36:00,
2013-01-07 17:42:00,34.2,25.4,30.11,SSW,209,4.0,7.0,70,0.00,,,0.00,Wunderground v.1.15,2013-01-07 23:42:00,
2013-01-07 17:48:00,34.2,25.8,30.11,SW,222,9.0,15.0,71,0.00,,,0.00,Wunderground v.1.15,2013-01-07 23:48:00,
2013-01-07 17:53:00,34.2,25.8,30.11,SW,223,9.0,11.0,71,0.00,,,0.00,Wunderground v.1.15,2013-01-07 23:53:00,
2013-01-07 17:58:00,34.1,25.7,30.11,SW,223,7.0,15.0,71,0.00,,,0.00,Wunderground v.1.15,2013-01-07 23:58:00,
2013-01-07 18:03:00,34.0,25.6,30.11,SW,218,5.0,10.0,71,0.00,,,0.00,Wunderground v.1.15,2013-01-08 00:03:00,
2013-01-07 18:08:00,33.9,25.5,30.11,SW,223,9.0,13.0,71,0.00,,,0.00,Wunderground v.1.15,2013-01-08 00:08:00,
2013-01-07 18:13:00,33.7,25.6,30.11,SW,217,7.0,10.0,72,0.00,,,0.00,Wunderground v.1.15,2013-01-08 00:13:00,
2013-01-07 18:18:00,33.7,25.6,30.11,SW,231,11.0,15.0,72,0.00,,,0.00,Wunderground v.1.15,2013-01-08 00:18:00,
2013-01-07 18:23:00,33.6,25.5,30.11,SW,222,8.0,12.0,72,0.00,,,0.00,Wunderground v.1.15,2013-01-08 00:23:00,
2013-01-07 18:28:00,33.5,25.8,30.11,SSW,213,6.0,12.0,73,0.00,,,0.00,Wunderground v.1.15,2013-01-08 00:28:00,
2013-01-07 18:33:00,33.5,25.8,30.11,SW,221,10.0,11.0,73,0.00,,,0.00,Wunderground v.1.15,2013-01-08 00:33:00,
2013-01-07 18:38:00,33.4,25.7,30.11,SSW,210,7.0,15.0,73,0.00,,,0.00,Wunderground v.1.15,2013-01-08 00:38:00,
2013-01-07 18:43:00,33.2,25.8,30.11,SW,227,4.0,9.0,74,0.00,,,0.00,Wunderground v.1.15,2013-01-08 00:43:00,
2013-01-07 18:48:00,33.0,25.6,30.11,SSW,211,7.0,10.0,74,0.00,,,0.00,Wunderground v.1.15,2013-01-08 00:48:00,
2013-01-07 18:53:00,33.0,25.6,30.11,SW,232,7.0,8.0,74,0.00,,,0.00,Wunderground v.1.15,2013-01-08 00:53:00,
2013-01-07 18:58:00,32.9,25.8,30.11,SW,229,7.0,11.0,75,0.00,,,0.00,Wunderground v.1.15,2013-01-08 00:58:00,
2013-01-07 19:04:00,32.8,25.7,30.11,SW,227,8.0,9.0,75,0.00,,,0.00,Wunderground v.1.15,2013-01-08 01:04:00,
2013-01-07 19:10:00,32.7,26.0,30.11,SW,218,7.0,11.0,76,0.00,,,0.00,Wunderground v.1.15,2013-01-08 01:10:00,
2013-01-07 19:15:00,32.6,25.9,30.11,SSW,213,7.0,7.0,76,0.00,,,0.00,Wunderground v.1.15,2013-01-08 01:15:00,
2013-01-07 19:20:00,32.5,25.8,30.10,SW,217,11.0,11.0,76,0.00,,,0.00,Wunderground v.1.15,2013-01-08 01:20:00,
2013-01-07 19:25:00,32.5,25.8,30.11,SW,222,4.0,10.0,76,0.00,,,0.00,Wunderground v.1.15,2013-01-08 01:25:00,
2013-01-07 19:30:00,32.5,26.1,30.11,SW,232,7.0,7.0,77,0.00,,,0.00,Wunderground v.1.15,2013-01-08 01:30:00,
2013-01-07 19:35:00,32.3,25.9,30.11,SW,217,6.0,9.0,77,0.00,,,0.00,Wunderground v.1.15,2013-01-08 01:35:00,
2013-01-07 19:40:00,32.2,25.8,30.11,SW,224,4.0,6.0,77,0.00,,,0.00,Wunderground v.1.15,2013-01-08 01:40:00,
2013-01-07 19:45:00,32.1,26.0,30.11,SW,221,5.0,9.0,78,0.00,,,0.00,Wunderground v.1.15,2013-01-08 01:45:00,
2013-01-07 19:50:00,32.0,25.9,30.10,SW,215,4.0,4.0,78,0.00,,,0.00,Wunderground v.1.15,2013-01-08 01:50:00,
2013-01-07 19:56:00,31.9,25.8,30.11,SW,226,4.0,6.0,78,0.00,,,0.00,Wunderground v.1.15,2013-01-08 01:56:00,
2013-01-07 20:01:00,31.8,26.0,30.11,SW,224,5.0,5.0,79,0.00,,,0.00,Wunderground v.1.15,2013-01-08 02:01:00,
2013-01-07 20:06:00,31.7,25.9,30.11,SSW,212,6.0,6.0,79,0.00,,,0.00,Wunderground v.1.15,2013-01-08 02:06:00,
2013-01-07 20:11:00,31.6,25.8,30.10,SW,222,5.0,5.0,79,0.00,,,0.00,Wunderground v.1.15,2013-01-08 02:11:00,
2013-01-07 20:16:00,31.4,25.6,30.10,SW,226,7.0,7.0,79,0.00,,,0.00,Wunderground v.1.15,2013-01-08 02:16:00,
2013-01-07 20:21:00,31.4,25.6,30.10,SW,215,5.0,7.0,79,0.00,,,0.00,Wunderground v.1.15,2013-01-08 02:21:00,
2013-01-07 20:27:00,31.5,25.7,30.10,SW,217,4.0,7.0,79,0.00,,,0.00,Wunderground v.1.15,2013-01-08 02:27:00,
2013-01-07 20:32:00,31.4,25.6,30.10,SW,229,7.0,10.0,79,0.00,,,0.00,Wunderground v.1.15,2013-01-08 02:32:00,
2013-01-07 20:38:00,31.5,25.7,30.10,SW,217,5.0,10.0,79,0.00,,,0.00,Wunderground v.1.15,2013-01-08 02:38:00,
2013-01-07 20:43:00,31.4,25.6,30.11,SW,216,3.0,6.0,79,0.00,,,0.00,Wunderground v.1.15,2013-01-08 02:43:00,
2013-01-07 20:48:00,31.2,25.4,30.11,SSW,211,4.0,6.0,79,0.00,,,0.00,Wunderground v.1.15,2013-01-08 02:48:00,
2013-01-07 20:53:00,31.1,25.3,30.11,SW,217,4.0,6.0,79,0.00,,,0.00,Wunderground v.1.15,2013-01-08 02:53:00,
2013-01-07 20:58:00,31.0,25.6,30.11,SW,217,5.0,7.0,80,0.00,,,0.00,Wunderground v.1.15,2013-01-08 02:58:00,
2013-01-07 21:03:00,31.0,25.6,30.11,SSW,213,6.0,10.0,80,0.00,,,0.00,Wunderground v.1.15,2013-01-08 03:03:00,
2013-01-07 21:08:00,30.8,25.4,30.10,SW,217,7.0,10.0,80,0.00,,,0.00,Wunderground v.1.15,2013-01-08 03:08:00,
2013-01-07 21:13:00,30.7,25.6,30.10,SW,225,5.0,9.0,81,0.00,,,0.00,Wunderground v.1.15,2013-01-08 03:13:00,
2013-01-07 21:18:00,30.6,25.5,30.11,SW,216,5.0,9.0,81,0.00,,,0.00,Wunderground v.1.15,2013-01-08 03:18:00,
2013-01-07 21:23:00,30.6,25.5,30.11,SW,227,6.0,7.0,81,0.00,,,0.00,Wunderground v.1.15,2013-01-08 03:23:00,
2013-01-07 21:28:00,30.6,25.5,30.11,SW,222,4.0,7.0,81,0.00,,,0.00,Wunderground v.1.15,2013-01-08 03:28:00,
2013-01-07 21:33:00,30.5,25.7,30.11,SW,229,4.0,7.0,82,0.00,,,0.00,Wunderground v.1.15,2013-01-08 03:33:00,
2013-01-07 21:38:00,30.4,25.6,30.11,SW,218,4.0,7.0,82,0.00,,,0.00,Wunderground v.1.15,2013-01-08 03:38:00,
2013-01-07 21:44:00,30.3,25.5,30.11,SW,223,4.0,5.0,82,0.00,,,0.00,Wunderground v.1.15,2013-01-08 03:44:00,
2013-01-07 21:49:00,30.2,25.4,30.12,SW,219,5.0,7.0,82,0.00,,,0.00,Wunderground v.1.15,2013-01-08 03:49:00,
2013-01-07 21:54:00,30.1,25.3,30.12,SW,217,4.0,6.0,82,0.00,,,0.00,Wunderground v.1.15,2013-01-08 03:54:00,
2013-01-07 22:00:00,30.1,25.3,30.12,SW,216,5.0,6.0,82,0.00,,,0.00,Wunderground v.1.15,2013-01-08 04:00:00,
2013-01-07 22:05:00,30.0,25.5,30.11,SW,227,5.0,6.0,83,0.00,,,0.00,Wunderground v.1.15,2013-01-08 04:05:00,
2013-01-07 22:10:00,30.0,25.5,30.11,SW,222,5.0,7.0,83,0.00,,,0.00,Wunderground v.1.15,2013-01-08 04:10:00,
2013-01-07 22:15:00,30.1,25.8,30.11,SW,223,5.0,6.0,84,0.00,,,0.00,Wunderground v.1.15,2013-01-08 04:15:00,
2013-01-07 22:20:00,30.1,25.8,30.12,SSW,213,4.0,7.0,84,0.00,,,0.00,Wunderground v.1.15,2013-01-08 04:20:00,
2013-01-07 22:25:00,30.0,25.8,30.12,SSW,213,4.0,5.0,84,0.00,,,0.00,Wunderground v.1.15,2013-01-08 04:25:00,
2013-01-07 22:31:00,30.0,25.8,30.12,SW,217,3.0,3.0,84,0.00,,,0.00,Wunderground v.1.15,2013-01-08 04:31:00,
2013-01-07 22:35:00,30.0,25.8,30.11,SW,225,5.0,6.0,84,0.00,,,0.00,Wunderground v.1.15,2013-01-08 04:35:00,
2013-01-07 22:41:00,30.0,25.8,30.12,SW,219,3.0,4.0,84,0.00,,,0.00,Wunderground v.1.15,2013-01-08 04:41:00,
2013-01-07 22:46:00,30.1,26.1,30.11,SW,215,4.0,7.0,85,0.00,,,0.00,Wunderground v.1.15,2013-01-08 04:46:00,
2013-01-07 22:51:00,30.1,26.1,30.12,SW,227,3.0,4.0,85,0.00,,,0.00,Wunderground v.1.15,2013-01-08 04:51:00,
2013-01-07 22:56:00,30.1,26.1,30.11,SSW,211,4.0,5.0,85,0.00,,,0.00,Wunderground v.1.15,2013-01-08 04:56:00,
2013-01-07 23:00:00,30.1,26.1,30.12,SW,216,2.0,5.0,85,0.00,,,0.00,Wunderground v.1.15,2013-01-08 05:00:00,
2013-01-07 23:01:00,30.1,26.1,30.12,SW,216,3.0,3.0,85,0.00,,,0.00,Wunderground v.1.15,2013-01-08 05:01:00,
2013-01-07 23:02:00,30.1,26.1,30.11,SW,219,3.0,5.0,85,0.00,,,0.00,Wunderground v.1.15,2013-01-08 05:02:00,
2013-01-07 23:04:00,30.2,26.2,30.11,SSW,199,3.0,5.0,85,0.00,,,0.00,Wunderground v.1.15,2013-01-08 05:04:00,
2013-01-07 23:09:00,30.2,26.2,30.12,SSW,205,3.0,5.0,85,0.00,,,0.00,Wunderground v.1.15,2013-01-08 05:09:00,
2013-01-07 23:14:00,30.2,26.2,30.12,SSW,200,4.0,7.0,85,0.00,,,0.00,Wunderground v.1.15,2013-01-08 05:14:00,
2013-01-07 23:19:00,30.3,26.3,30.11,SSW,200,4.0,7.0,85,0.00,,,0.00,Wunderground v.1.15,2013-01-08 05:19:00,
2013-01-07 23:24:00,30.3,26.3,30.12,SSW,205,4.0,5.0,85,0.00,,,0.00,Wunderground v.1.15,2013-01-08 05:24:00,
2013-01-07 23:29:00,30.4,26.4,30.11,SSW,205,3.0,5.0,85,0.00,,,0.00,Wunderground v.1.15,2013-01-08 05:29:00,
2013-01-07 23:34:00,30.5,26.5,30.11,SW,215,4.0,5.0,85,0.00,,,0.00,Wunderground v.1.15,2013-01-08 05:34:00,
2013-01-07 23:39:00,30.7,26.7,30.11,SW,226,4.0,8.0,85,0.00,,,0.00,Wunderground v.1.15,2013-01-08 05:39:00,
2013-01-07 23:44:00,30.8,26.8,30.11,SW,225,6.0,6.0,85,0.00,,,0.00,Wunderground v.1.15,2013-01-08 05:44:00,
2013-01-07 23:49:00,30.8,26.8,30.11,SW,225,7.0,8.0,85,0.00,,,0.00,Wunderground v.1.15,2013-01-08 05:49:00,
2013-01-07 23:54:00,30.8,26.8,30.11,SW,215,4.0,9.0,85,0.00,,,0.00,Wunderground v.1.15,2013-01-08 05:54:00,
2013-01-07 23:59:00,30.9,26.9,30.12,SW,217,5.0,11.0,85,0.00,,,0.00,Wunderground v.1.15,2013-01-08 05:59:00,